createdAt,value
2022-11-23T00:01:33.536Z,8.93
2022-11-23T00:04:03.594Z,8.27
2022-11-23T00:06:31.359Z,6.90
2022-11-23T00:08:59.220Z,8.68
2022-11-23T00:11:27.934Z,8.85
2022-11-23T00:13:55.760Z,6.63
2022-11-23T00:16:26.123Z,7.25
2022-11-23T00:18:58.442Z,6.80
2022-11-23T00:21:28.058Z,10.50
2022-11-23T00:23:55.399Z,6.95
2022-11-23T00:26:22.989Z,7.57
2022-11-23T00:28:50.916Z,7.45
2022-11-23T00:31:20.651Z,9.88
2022-11-23T00:33:53.606Z,11.35
2022-11-23T00:36:21.867Z,12.32
2022-11-23T00:38:50.361Z,16.85
2022-11-23T00:41:23.618Z,18.90
2022-11-23T00:43:51.577Z,16.50
2022-11-23T00:46:24.859Z,18.48
2022-11-23T00:48:53.926Z,16.67
2022-11-23T00:51:24.970Z,11.98
2022-11-23T00:53:53.205Z,17.85
2022-11-23T00:56:21.166Z,16.10
2022-11-23T00:58:53.575Z,17.58
2022-11-23T01:01:24.976Z,18.00
2022-11-23T01:03:55.686Z,14.73
2022-11-23T01:06:28.935Z,17.13
2022-11-23T01:09:02.688Z,14.93
2022-11-23T01:11:31.999Z,15.73
2022-11-23T01:14:01.123Z,14.50
2022-11-23T01:16:31.257Z,13.55
2022-11-23T01:19:02.280Z,10.88
2022-11-23T01:21:31.369Z,12.68
2022-11-23T01:24:00.196Z,13.85
2022-11-23T01:26:27.593Z,13.50
2022-11-23T01:28:58.336Z,14.20
2022-11-23T01:31:27.087Z,11.57
2022-11-23T01:33:58.570Z,12.95
2022-11-23T01:36:34.434Z,15.73
2022-11-23T01:39:03.285Z,14.43
2022-11-23T01:41:41.789Z,11.50
2022-11-23T01:44:27.785Z,12.98
2022-11-23T01:46:59.091Z,13.30
2022-11-23T01:49:30.138Z,10.73
2022-11-23T01:52:02.368Z,13.00
2022-11-23T01:54:56.908Z,12.98
2022-11-23T01:57:32.732Z,10.68
2022-11-23T02:00:01.436Z,10.82
2022-11-23T02:02:51.010Z,13.18
2022-11-23T02:05:22.067Z,11.25
2022-11-23T02:07:50.061Z,12.85
2022-11-23T02:10:18.235Z,15.32
2022-11-23T02:12:46.283Z,11.82
2022-11-23T02:15:13.847Z,15.60
2022-11-23T02:17:43.609Z,14.30
2022-11-23T02:20:14.196Z,12.23
2022-11-23T02:22:53.472Z,11.07
2022-11-23T02:25:45.462Z,10.13
2022-11-23T02:28:24.677Z,11.10
2022-11-23T02:30:54.770Z,12.98
2022-11-23T02:33:25.385Z,13.23
2022-11-23T02:35:58.656Z,12.85
2022-11-23T02:38:30.070Z,19.45
2022-11-23T02:40:57.979Z,15.35
2022-11-23T02:43:28.870Z,15.90
2022-11-23T02:46:04.644Z,12.30
2022-11-23T02:48:32.013Z,13.00
2022-11-23T02:50:59.401Z,13.95
2022-11-23T02:53:26.936Z,13.30
2022-11-23T02:55:55.067Z,13.77
2022-11-23T02:58:22.438Z,16.67
2022-11-23T03:00:49.883Z,17.27
2022-11-23T03:03:20.353Z,13.13
2022-11-23T03:05:47.743Z,17.25
2022-11-23T03:08:15.159Z,18.23
2022-11-23T03:10:43.066Z,14.40
2022-11-23T03:13:11.553Z,15.00
2022-11-23T03:15:40.398Z,13.57
2022-11-23T03:18:07.916Z,10.63
2022-11-23T03:20:35.851Z,10.35
2022-11-23T03:23:04.841Z,10.93
2022-11-23T03:25:32.318Z,12.73
2022-11-23T03:27:59.803Z,8.88
2022-11-23T03:30:27.919Z,10.27
2022-11-23T03:32:55.353Z,10.02
2022-11-23T03:35:24.652Z,8.70
2022-11-23T03:38:21.622Z,10.52
2022-11-23T03:40:49.298Z,9.02
2022-11-23T03:43:36.920Z,14.63
2022-11-23T03:46:04.380Z,10.38
2022-11-23T03:48:31.948Z,10.82
2022-11-23T03:50:59.481Z,9.30
2022-11-23T03:53:26.984Z,9.82
2022-11-23T03:55:56.369Z,12.13
2022-11-23T03:58:25.599Z,7.47
2022-11-23T04:00:55.247Z,8.77
2022-11-23T04:03:22.784Z,10.30
2022-11-23T04:06:08.322Z,7.05
2022-11-23T04:09:00.400Z,9.45
2022-11-23T04:11:48.420Z,7.22
2022-11-23T04:14:16.499Z,9.35
2022-11-23T04:16:44.129Z,10.00
2022-11-23T04:19:11.876Z,14.27
2022-11-23T04:21:39.483Z,10.35
2022-11-23T04:24:07.221Z,12.35
2022-11-23T04:26:36.750Z,14.60
2022-11-23T04:29:04.298Z,11.20
2022-11-23T04:31:34.368Z,12.40
2022-11-23T04:34:10.380Z,10.00
2022-11-23T04:36:38.793Z,10.68
2022-11-23T04:39:07.368Z,10.25
2022-11-23T04:41:42.581Z,10.27
2022-11-23T04:44:10.157Z,11.65
2022-11-23T04:46:39.997Z,9.52
2022-11-23T04:49:11.796Z,14.18
2022-11-23T04:51:39.400Z,11.25
2022-11-23T04:54:06.764Z,13.25
2022-11-23T04:56:42.416Z,15.73
2022-11-23T04:59:09.897Z,13.18
2022-11-23T05:01:38.526Z,15.82
2022-11-23T05:04:24.225Z,17.60
2022-11-23T05:06:51.973Z,15.13
2022-11-23T05:09:19.851Z,14.23
2022-11-23T05:12:10.479Z,13.05
2022-11-23T05:14:37.994Z,13.27
2022-11-23T05:17:05.623Z,14.10
2022-11-23T05:19:33.261Z,11.10
2022-11-23T05:22:01.204Z,11.88
2022-11-23T05:24:28.900Z,13.52
2022-11-23T05:27:05.291Z,11.25
2022-11-23T05:29:33.085Z,12.00
2022-11-23T05:32:00.644Z,12.52
2022-11-23T05:34:29.041Z,13.15
2022-11-23T05:36:56.478Z,13.40
2022-11-23T05:39:24.928Z,12.95
2022-11-23T05:41:54.064Z,13.43
2022-11-23T05:44:34.755Z,19.00
2022-11-23T05:47:04.990Z,12.93
2022-11-23T05:49:34.853Z,11.15
2022-11-23T05:52:04.762Z,14.27
2022-11-23T05:54:32.428Z,14.38
2022-11-23T05:57:05.188Z,11.10
2022-11-23T05:59:51.865Z,10.80
2022-11-23T06:02:27.744Z,11.80
2022-11-23T06:05:00.835Z,9.93
2022-11-23T06:07:39.084Z,13.23
2022-11-23T06:10:11.663Z,11.18
2022-11-23T06:12:42.014Z,10.93
2022-11-23T06:15:14.014Z,18.92
2022-11-23T06:17:41.772Z,15.20
2022-11-23T06:20:14.665Z,19.02
2022-11-23T06:22:52.544Z,11.55
2022-11-23T06:25:21.060Z,13.27
2022-11-23T06:28:12.928Z,51.03
2022-11-23T06:30:44.217Z,13.03
2022-11-23T06:33:12.853Z,13.20
2022-11-23T06:35:56.401Z,16.60
2022-11-23T06:38:26.811Z,13.73
2022-11-23T06:41:04.960Z,15.98
2022-11-23T06:43:32.563Z,12.88
2022-11-23T06:46:04.854Z,16.65
2022-11-23T06:48:34.199Z,14.07
2022-11-23T06:51:02.459Z,14.80
2022-11-23T06:53:32.057Z,16.60
2022-11-23T06:56:04.458Z,12.27
2022-11-23T06:58:33.079Z,15.27
2022-11-23T07:01:06.028Z,15.90
2022-11-23T07:03:39.719Z,16.85
2022-11-23T07:06:17.686Z,20.98
2022-11-23T07:08:45.562Z,16.70
2022-11-23T07:11:25.750Z,18.40
2022-11-23T07:13:53.352Z,18.88
2022-11-23T07:16:21.000Z,18.10
2022-11-23T07:18:51.024Z,16.00
2022-11-23T07:21:18.687Z,18.13
2022-11-23T07:23:46.988Z,18.65
2022-11-23T07:26:14.640Z,18.33
2022-11-23T07:28:42.481Z,16.77
2022-11-23T07:31:11.355Z,21.35
2022-11-23T07:33:38.849Z,18.55
2022-11-23T07:36:06.752Z,18.10
2022-11-23T07:38:34.202Z,20.73
2022-11-23T07:41:03.922Z,19.05
2022-11-23T07:43:54.687Z,20.92
2022-11-23T07:46:22.400Z,23.45
2022-11-23T07:48:49.835Z,19.15
2022-11-23T07:51:19.690Z,19.48
2022-11-23T07:53:47.579Z,19.30
2022-11-23T07:56:14.953Z,20.83
2022-11-23T07:58:42.376Z,28.02
2022-11-23T08:01:11.100Z,21.30
2022-11-23T08:03:38.573Z,18.40
2022-11-23T08:06:10.084Z,24.50
2022-11-23T08:08:37.726Z,22.67
2022-11-23T08:11:06.724Z,25.58
2022-11-23T08:13:37.444Z,26.10
2022-11-23T08:16:04.997Z,27.35
2022-11-23T08:18:32.598Z,23.17
2022-11-23T08:21:03.343Z,25.23
2022-11-23T08:23:30.841Z,27.98
2022-11-23T08:25:58.504Z,22.20
2022-11-23T08:28:26.339Z,28.52
2022-11-23T08:30:53.770Z,24.85
2022-11-23T08:33:21.385Z,25.02
2022-11-23T08:35:48.760Z,23.10
2022-11-23T08:38:16.180Z,20.77
2022-11-23T08:40:43.544Z,21.42
2022-11-23T08:43:10.972Z,22.65
2022-11-23T08:45:38.337Z,27.35
2022-11-23T08:48:06.263Z,26.20
2022-11-23T08:50:35.231Z,27.55
2022-11-23T08:53:02.635Z,24.90
2022-11-23T08:55:35.000Z,23.08
2022-11-23T08:58:03.503Z,22.90
2022-11-23T09:00:31.074Z,20.73
2022-11-23T09:02:59.077Z,19.15
2022-11-23T09:05:27.828Z,24.38
2022-11-23T09:07:59.113Z,25.65
2022-11-23T09:10:26.479Z,22.23
2022-11-23T09:12:53.985Z,23.17
2022-11-23T09:15:21.513Z,22.77
2022-11-23T09:17:48.864Z,22.80
2022-11-23T09:20:16.446Z,21.55
2022-11-23T09:22:44.271Z,23.80
2022-11-23T09:25:11.963Z,25.05
2022-11-23T09:27:39.463Z,25.38
2022-11-23T09:30:07.457Z,23.30
2022-11-23T09:32:34.938Z,23.65
2022-11-23T09:35:02.739Z,25.90
2022-11-23T09:37:30.180Z,27.00
2022-11-23T09:39:57.694Z,22.20
2022-11-23T09:42:38.709Z,22.83
2022-11-23T09:45:06.054Z,23.27
2022-11-23T09:48:12.617Z,24.38
2022-11-23T09:50:46.383Z,19.70
2022-11-23T09:53:21.672Z,21.42
2022-11-23T09:55:52.524Z,23.00
2022-11-23T09:58:22.499Z,23.75
2022-11-23T10:00:59.925Z,26.65
2022-11-23T10:03:29.453Z,21.58
2022-11-23T10:06:17.503Z,21.20
2022-11-23T10:09:09.565Z,26.92
2022-11-23T10:11:54.997Z,21.55
2022-11-23T10:14:43.637Z,25.00
2022-11-23T10:17:29.325Z,21.45
2022-11-23T10:20:21.127Z,17.38
2022-11-23T10:23:02.763Z,14.30
2022-11-23T10:25:47.529Z,11.03
2022-11-23T10:28:18.467Z,11.18
2022-11-23T10:30:53.916Z,12.70
2022-11-23T10:33:50.758Z,10.27
2022-11-23T10:36:18.177Z,18.83
2022-11-23T10:38:50.963Z,13.07
2022-11-23T10:41:18.502Z,12.70
2022-11-23T10:44:22.403Z,49.15
2022-11-23T10:46:49.912Z,13.18
2022-11-23T10:49:20.679Z,13.15
2022-11-23T10:51:57.295Z,9.73
2022-11-23T10:54:32.451Z,10.27
2022-11-23T10:57:01.954Z,10.20
2022-11-23T10:59:38.129Z,9.25
2022-11-23T11:02:14.271Z,11.15
2022-11-23T11:04:42.127Z,8.25
2022-11-23T11:07:27.310Z,11.48
2022-11-23T11:10:01.155Z,9.82
2022-11-23T11:12:32.741Z,10.63
2022-11-23T11:15:12.165Z,10.60
2022-11-23T11:17:41.950Z,13.27
2022-11-23T11:20:27.703Z,12.00
2022-11-23T11:23:04.123Z,8.90
2022-11-23T11:25:37.679Z,9.88
2022-11-23T11:28:18.677Z,11.25
2022-11-23T11:30:59.556Z,11.20
2022-11-23T11:33:36.589Z,12.40
2022-11-23T11:36:06.410Z,13.68
2022-11-23T11:38:36.925Z,11.00
2022-11-23T11:41:14.548Z,12.45
2022-11-23T11:43:49.347Z,14.82
2022-11-23T11:46:35.641Z,12.20
2022-11-23T11:49:18.082Z,13.02
2022-11-23T11:54:29.841Z,14.38
2022-11-23T11:57:29.627Z,13.57
2022-11-23T11:59:58.387Z,13.73
2022-11-23T12:02:36.247Z,13.85
2022-11-23T12:05:26.027Z,14.18
2022-11-23T12:08:03.011Z,14.50
2022-11-23T12:10:52.453Z,15.18
2022-11-23T12:13:23.428Z,15.07
2022-11-23T12:16:18.351Z,13.07
2022-11-23T12:19:24.554Z,15.68
2022-11-23T12:21:58.608Z,14.25
2022-11-23T12:24:50.725Z,12.52
2022-11-23T12:27:21.226Z,13.60
2022-11-23T12:30:16.241Z,13.13
2022-11-23T12:33:08.388Z,12.50
2022-11-23T12:35:54.715Z,15.05
2022-11-23T12:38:29.646Z,17.63
2022-11-23T12:41:09.005Z,13.88
2022-11-23T12:44:02.265Z,17.00
2022-11-23T12:46:35.798Z,14.52
2022-11-23T12:49:39.683Z,15.45
2022-11-23T12:52:31.782Z,14.55
2022-11-23T12:55:32.068Z,18.70
2022-11-23T12:58:11.656Z,18.55
2022-11-23T13:00:48.335Z,16.85
2022-11-23T13:03:44.263Z,16.55
2022-11-23T13:06:28.151Z,23.65
2022-11-23T13:09:11.300Z,24.10
2022-11-23T13:11:41.615Z,23.88
2022-11-23T13:14:15.099Z,26.30
2022-11-23T13:16:54.315Z,27.30
2022-11-23T13:19:34.913Z,28.00
2022-11-23T13:22:05.688Z,30.42
2022-11-23T13:24:35.819Z,28.30
2022-11-23T13:27:15.845Z,27.50
2022-11-23T13:29:52.451Z,29.50
2022-11-23T13:32:52.429Z,29.85
2022-11-23T13:35:19.757Z,28.65
2022-11-23T13:37:56.356Z,29.73
2022-11-23T13:40:44.142Z,28.77
2022-11-23T13:43:29.036Z,29.00
2022-11-23T13:46:30.032Z,33.25
2022-11-23T13:49:02.022Z,33.08
2022-11-23T13:51:34.687Z,34.10
2022-11-23T13:54:06.087Z,34.80
2022-11-23T13:56:42.428Z,36.97
2022-11-23T13:59:25.235Z,38.83
2022-11-23T14:02:08.116Z,39.20
2022-11-23T14:04:38.758Z,40.55
2022-11-23T14:07:25.504Z,35.05
2022-11-23T14:10:09.928Z,40.25
2022-11-23T14:12:42.723Z,43.58
2022-11-23T14:15:17.894Z,40.30
2022-11-23T14:17:48.394Z,39.53
2022-11-23T14:20:54.574Z,35.88
2022-11-23T14:23:43.260Z,42.60
2022-11-23T14:26:16.213Z,40.00
2022-11-23T14:29:21.548Z,42.58
2022-11-23T14:32:26.368Z,39.25
2022-11-23T14:35:05.246Z,41.50
2022-11-23T14:38:00.374Z,33.70
2022-11-23T14:40:48.362Z,34.88
2022-11-23T14:43:19.376Z,33.38
2022-11-23T14:45:47.828Z,33.50
2022-11-23T14:48:22.029Z,33.35
2022-11-23T14:51:05.780Z,29.48
2022-11-23T14:53:36.576Z,35.67
2022-11-23T14:56:04.233Z,30.77
2022-11-23T14:58:33.271Z,31.08
2022-11-23T15:01:01.798Z,33.53
2022-11-23T15:03:49.844Z,31.95
2022-11-23T15:06:22.049Z,33.55
2022-11-23T15:09:09.527Z,35.33
2022-11-23T15:11:38.333Z,39.38
2022-11-23T15:14:26.736Z,34.78
2022-11-23T15:16:54.171Z,35.50
2022-11-23T15:19:29.496Z,42.33
2022-11-23T15:21:57.668Z,34.85
2022-11-23T15:24:26.950Z,38.35
2022-11-23T15:27:09.312Z,35.40
2022-11-23T15:29:39.998Z,36.45
2022-11-23T15:32:32.795Z,41.05
2022-11-23T15:35:04.471Z,35.90
2022-11-23T15:37:42.891Z,39.28
2022-11-23T15:40:15.557Z,35.20
2022-11-23T15:42:44.799Z,37.25
2022-11-23T15:45:40.324Z,36.20
2022-11-23T15:48:14.695Z,38.75
2022-11-23T15:50:54.055Z,36.25
2022-11-23T15:53:25.533Z,37.30
2022-11-23T15:55:54.169Z,37.65
2022-11-23T15:58:21.947Z,41.17
2022-11-23T16:00:57.214Z,40.88
2022-11-23T16:03:41.823Z,42.88
2022-11-23T16:06:16.668Z,42.65
2022-11-23T16:08:44.066Z,48.55
2022-11-23T16:11:33.954Z,55.03
2022-11-23T16:14:19.615Z,44.67
2022-11-23T16:16:58.620Z,31.42
2022-11-23T16:19:29.942Z,34.58
2022-11-23T16:22:05.986Z,37.22
2022-11-23T16:24:35.733Z,46.92
2022-11-23T16:27:13.410Z,47.13
2022-11-23T16:29:41.629Z,37.45
2022-11-23T16:32:25.293Z,39.20
2022-11-23T16:34:53.250Z,40.40
2022-11-23T16:37:21.949Z,42.75
2022-11-23T16:39:49.476Z,55.33
2022-11-23T16:42:17.900Z,53.42
2022-11-23T16:44:45.661Z,52.60
2022-11-23T16:47:19.226Z,51.47
2022-11-23T16:49:46.831Z,51.38
2022-11-23T16:52:14.213Z,43.40
2022-11-23T16:54:41.823Z,36.72
2022-11-23T16:57:24.004Z,40.45
2022-11-23T16:59:51.490Z,42.35
2022-11-23T17:02:19.141Z,48.85
2022-11-23T17:04:47.132Z,51.58
2022-11-23T17:07:14.792Z,49.05
2022-11-23T17:09:42.447Z,48.20
2022-11-23T17:12:16.897Z,55.50
2022-11-23T17:14:49.335Z,49.03
2022-11-23T17:17:20.794Z,49.83
2022-11-23T17:19:49.885Z,49.20
2022-11-23T17:22:21.504Z,53.53
2022-11-23T17:24:50.006Z,51.10
2022-11-23T17:27:21.915Z,41.65
2022-11-23T17:29:54.903Z,32.90
2022-11-23T17:32:22.295Z,34.85
2022-11-23T17:34:49.687Z,34.00
2022-11-23T17:37:23.132Z,32.38
2022-11-23T17:39:51.091Z,33.35
2022-11-23T17:42:18.962Z,35.25
2022-11-23T17:44:46.474Z,43.85
2022-11-23T17:47:32.537Z,42.95
2022-11-23T17:49:59.996Z,41.13
2022-11-23T17:52:27.681Z,42.15
2022-11-23T17:54:55.136Z,42.53
2022-11-23T17:57:24.649Z,43.25
2022-11-23T17:59:52.600Z,41.05
2022-11-23T18:02:20.749Z,36.88
2022-11-23T18:04:48.186Z,28.70
2022-11-23T18:07:16.594Z,31.60
2022-11-23T18:09:44.089Z,32.55
2022-11-23T18:12:12.007Z,29.90
2022-11-23T18:14:39.544Z,28.08
2022-11-23T18:17:06.946Z,33.25
2022-11-23T18:19:34.748Z,26.83
2022-11-23T18:22:02.407Z,26.60
2022-11-23T18:24:29.724Z,30.95
2022-11-23T18:26:57.227Z,27.35
2022-11-23T18:29:24.660Z,28.52
2022-11-23T18:31:52.201Z,28.88
2022-11-23T18:34:19.582Z,37.75
2022-11-23T18:36:46.978Z,41.17
2022-11-23T18:39:14.315Z,36.85
2022-11-23T18:41:41.935Z,41.40
2022-11-23T18:44:09.393Z,37.08
2022-11-23T18:46:36.819Z,33.22
2022-11-23T18:49:04.331Z,33.88
2022-11-23T18:51:31.797Z,34.17
2022-11-23T18:53:59.195Z,36.50
2022-11-23T18:56:26.636Z,34.08
2022-11-23T18:58:54.221Z,27.92
2022-11-23T19:01:23.328Z,37.60
2022-11-23T19:03:52.937Z,31.63
2022-11-23T19:06:22.703Z,34.53
2022-11-23T19:08:57.434Z,37.65
2022-11-23T19:11:27.426Z,38.47
2022-11-23T19:13:57.406Z,40.72
2022-11-23T19:16:27.194Z,48.67
2022-11-23T19:18:56.147Z,47.95
2022-11-23T19:21:26.058Z,47.47
2022-11-23T19:23:55.512Z,57.30
2022-11-23T19:26:23.946Z,35.33
2022-11-23T19:28:52.497Z,37.30
2022-11-23T19:31:21.341Z,40.42
2022-11-23T19:33:50.037Z,53.05
2022-11-23T19:36:20.181Z,46.83
2022-11-23T19:38:48.654Z,41.50
2022-11-23T19:41:17.102Z,58.10
2022-11-23T19:43:45.097Z,48.53
2022-11-23T19:46:13.946Z,37.03
2022-11-23T19:48:42.139Z,40.72
2022-11-23T19:51:14.683Z,42.67
2022-11-23T19:53:43.532Z,42.78
2022-11-23T19:56:18.063Z,40.53
2022-11-23T19:58:46.355Z,37.72
2022-11-23T20:01:16.234Z,37.08
2022-11-23T20:03:48.983Z,35.63
2022-11-23T20:06:28.064Z,40.70
2022-11-23T20:08:57.972Z,34.30
2022-11-23T20:11:27.925Z,34.78
2022-11-23T20:13:56.347Z,32.50
2022-11-23T20:16:25.123Z,32.85
2022-11-23T20:19:00.868Z,34.33
2022-11-23T20:21:30.132Z,35.83
2022-11-23T20:24:04.484Z,35.58
2022-11-23T20:26:36.116Z,35.13
2022-11-23T20:29:05.289Z,52.38
2022-11-23T20:31:33.450Z,46.00
2022-11-23T20:34:04.126Z,27.55
2022-11-23T20:36:35.360Z,39.10
2022-11-23T20:39:06.265Z,38.75
2022-11-23T20:41:39.811Z,34.42
2022-11-23T20:44:11.205Z,36.15
2022-11-23T20:47:01.327Z,34.42
2022-11-23T20:49:26.502Z,29.45
2022-11-23T20:51:53.924Z,38.70
2022-11-23T20:54:21.302Z,37.40
2022-11-23T20:56:48.677Z,35.10
2022-11-23T20:59:16.301Z,34.08
2022-11-23T21:01:43.780Z,36.33
2022-11-23T21:04:11.254Z,37.80
2022-11-23T21:06:40.044Z,26.95
2022-11-23T21:09:09.712Z,24.75
2022-11-23T21:11:55.879Z,31.98
2022-11-23T21:14:27.428Z,33.28
2022-11-23T21:19:27.681Z,28.92
2022-11-23T21:21:56.842Z,27.48
2022-11-23T21:24:25.227Z,26.52
2022-11-23T21:26:52.734Z,29.92
2022-11-23T21:29:20.550Z,29.20
2022-11-23T21:31:49.034Z,28.65
2022-11-23T21:34:23.523Z,27.48
2022-11-23T21:36:52.515Z,28.88
2022-11-23T21:39:20.610Z,26.38
2022-11-23T21:41:51.106Z,26.63
2022-11-23T21:44:19.164Z,32.95
2022-11-23T21:46:46.895Z,33.47
2022-11-23T21:49:14.463Z,27.25
2022-11-23T21:51:42.801Z,26.77
2022-11-23T21:54:14.207Z,29.40
2022-11-23T21:56:46.058Z,20.92
2022-11-23T21:59:14.038Z,29.60
2022-11-23T22:01:42.445Z,47.60
2022-11-23T22:04:15.459Z,110.25
2022-11-23T22:06:45.144Z,43.05
2022-11-23T22:09:13.364Z,46.65
2022-11-23T22:11:43.045Z,37.22
2022-11-23T22:14:15.398Z,31.13
2022-11-23T22:16:45.387Z,30.13
2022-11-23T22:19:14.950Z,35.75
2022-11-23T22:21:44.033Z,31.85
2022-11-23T22:24:13.853Z,33.15
2022-11-23T22:26:41.978Z,28.65
2022-11-23T22:29:10.079Z,35.20
2022-11-23T22:31:38.173Z,31.98
2022-11-23T22:34:07.781Z,28.50
2022-11-23T22:36:35.388Z,26.48
2022-11-23T22:39:05.883Z,33.13
2022-11-23T22:41:36.672Z,31.92
2022-11-23T22:44:06.168Z,29.27
2022-11-23T22:46:33.823Z,26.08
2022-11-23T22:49:01.973Z,29.40
2022-11-23T22:51:29.966Z,31.90
2022-11-23T22:53:59.244Z,27.40
2022-11-23T22:56:27.674Z,28.45
2022-11-23T22:58:55.132Z,29.70
2022-11-23T23:01:26.138Z,31.17
2022-11-23T23:03:55.553Z,28.65
2022-11-23T23:06:25.812Z,30.02
2022-11-23T23:08:55.989Z,27.70
2022-11-23T23:11:24.263Z,29.63
2022-11-23T23:13:52.462Z,27.63
2022-11-23T23:16:19.983Z,31.33
2022-11-23T23:18:47.586Z,29.40
2022-11-23T23:21:17.043Z,29.83
2022-11-23T23:23:49.601Z,29.65
2022-11-23T23:26:19.314Z,27.25
2022-11-23T23:28:47.004Z,27.55
2022-11-23T23:31:17.095Z,36.30
2022-11-23T23:33:45.913Z,31.95
2022-11-23T23:36:15.993Z,27.35
2022-11-23T23:38:43.747Z,30.10
2022-11-23T23:41:12.679Z,28.75
2022-11-23T23:43:41.031Z,27.42
2022-11-23T23:46:10.700Z,32.05
2022-11-23T23:48:39.659Z,32.63
2022-11-23T23:51:09.037Z,27.15
2022-11-23T23:53:36.940Z,27.58
2022-11-23T23:56:07.821Z,29.77
2022-11-23T23:58:35.744Z,27.83
